createdAt,value
2019-06-01T00:00:53.524Z,28.27
2019-06-01T00:03:21.744Z,28.15
2019-06-01T00:05:49.898Z,32.20
2019-06-01T00:08:18.037Z,26.40
2019-06-01T00:10:47.717Z,30.77
2019-06-01T00:13:16.006Z,27.75
2019-06-01T00:15:44.216Z,26.60
2019-06-01T00:18:12.415Z,31.35
2019-06-01T00:20:40.535Z,30.05
2019-06-01T00:23:08.728Z,27.45
2019-06-01T00:25:36.926Z,28.50
2019-06-01T00:28:05.042Z,30.48
2019-06-01T00:30:33.222Z,28.92
2019-06-01T00:33:01.414Z,29.70
2019-06-01T00:35:29.560Z,30.70
2019-06-01T00:37:57.758Z,30.40
2019-06-01T00:40:25.918Z,31.50
2019-06-01T00:42:54.075Z,29.20
2019-06-01T00:45:22.231Z,28.23
2019-06-01T00:47:50.912Z,33.63
2019-06-01T00:50:20.488Z,33.08
2019-06-01T00:52:49.237Z,33.83
2019-06-01T00:55:17.458Z,27.73
2019-06-01T00:57:45.795Z,28.75
2019-06-01T01:00:14.226Z,33.20
2019-06-01T01:02:42.464Z,27.52
2019-06-01T01:05:12.379Z,32.30
2019-06-01T01:07:40.593Z,32.40
2019-06-01T01:10:08.782Z,31.10
2019-06-01T01:12:36.935Z,30.30
2019-06-01T01:15:06.006Z,30.32
2019-06-01T01:17:34.219Z,27.82
2019-06-01T01:20:04.916Z,32.75
2019-06-01T01:22:33.130Z,29.85
2019-06-01T01:25:05.059Z,35.85
2019-06-01T01:27:33.198Z,28.87
2019-06-01T01:30:01.335Z,29.98
2019-06-01T01:32:29.564Z,31.62
2019-06-01T01:34:57.872Z,29.65
2019-06-01T01:37:26.083Z,25.57
2019-06-01T01:39:54.301Z,28.05
2019-06-01T01:42:22.442Z,28.95
2019-06-01T01:44:50.643Z,26.40
2019-06-01T01:47:18.799Z,29.10
2019-06-01T01:49:46.993Z,25.57
2019-06-01T01:52:15.175Z,26.77
2019-06-01T01:54:43.298Z,31.37
2019-06-01T01:57:11.459Z,26.57
2019-06-01T01:59:39.592Z,27.32
2019-06-01T02:02:07.865Z,31.48
2019-06-01T02:04:36.014Z,27.35
2019-06-01T02:07:04.251Z,32.13
2019-06-01T02:09:32.466Z,28.38
2019-06-01T02:12:01.852Z,27.82
2019-06-01T02:14:30.139Z,31.48
2019-06-01T02:16:58.376Z,29.02
2019-06-01T02:19:26.544Z,31.75
2019-06-01T02:21:54.691Z,25.77
2019-06-01T02:24:22.831Z,30.02
2019-06-01T02:26:51.019Z,26.33
2019-06-01T02:29:19.216Z,27.73
2019-06-01T02:31:47.362Z,24.67
2019-06-01T02:34:15.674Z,24.85
2019-06-01T02:36:43.761Z,24.87
2019-06-01T02:39:11.930Z,23.10
2019-06-01T02:41:40.067Z,25.80
2019-06-01T02:44:08.255Z,23.52
2019-06-01T02:46:36.535Z,26.05
2019-06-01T02:49:06.240Z,24.67
2019-06-01T02:51:34.674Z,26.00
2019-06-01T02:54:04.139Z,25.15
2019-06-01T02:56:32.371Z,22.32
2019-06-01T02:59:00.554Z,22.35
2019-06-01T03:01:36.944Z,23.83
2019-06-01T03:04:09.635Z,24.37
2019-06-01T03:06:40.657Z,23.52
2019-06-01T03:09:09.303Z,23.75
2019-06-01T03:11:38.698Z,25.15
2019-06-01T03:14:08.926Z,21.62
2019-06-01T03:16:41.393Z,20.95
2019-06-01T03:19:09.622Z,29.30
2019-06-01T03:21:37.975Z,21.95
2019-06-01T03:24:10.432Z,21.62
2019-06-01T03:26:45.157Z,23.45
2019-06-01T03:29:15.595Z,21.17
2019-06-01T03:31:43.924Z,22.07
2019-06-01T03:34:13.891Z,20.57
2019-06-01T03:36:42.093Z,24.80
2019-06-01T03:39:10.550Z,22.62
2019-06-01T03:41:38.729Z,20.60
2019-06-01T03:44:06.886Z,27.22
2019-06-01T03:46:35.107Z,23.25
2019-06-01T03:49:03.863Z,23.98
2019-06-01T03:51:32.217Z,19.60
2019-06-01T03:54:00.884Z,21.10
2019-06-01T03:56:29.255Z,19.87
2019-06-01T03:58:57.397Z,20.25
2019-06-01T04:01:25.639Z,23.07
2019-06-01T04:03:53.795Z,23.98
2019-06-01T04:06:21.943Z,21.42
2019-06-01T04:08:52.911Z,21.27
2019-06-01T04:11:21.109Z,20.35
2019-06-01T04:13:49.298Z,24.05
2019-06-01T04:16:17.545Z,18.90
2019-06-01T04:18:45.738Z,21.00
2019-06-01T04:21:13.917Z,19.05
2019-06-01T04:23:42.129Z,20.30
2019-06-01T04:26:10.434Z,21.07
2019-06-01T04:28:38.489Z,20.75
2019-06-01T04:31:08.474Z,19.85
2019-06-01T04:33:42.237Z,19.75
2019-06-01T04:36:10.959Z,20.80
2019-06-01T04:38:39.223Z,18.98
2019-06-01T04:41:07.646Z,19.15
2019-06-01T04:43:35.744Z,18.73
2019-06-01T04:46:04.050Z,19.30
2019-06-01T04:48:32.221Z,18.23
2019-06-01T04:51:00.363Z,18.70
2019-06-01T04:53:28.501Z,18.70
2019-06-01T04:55:56.682Z,17.95
2019-06-01T04:58:24.808Z,19.48
2019-06-01T05:00:52.971Z,18.73
2019-06-01T05:03:21.115Z,18.32
2019-06-01T05:05:49.300Z,18.73
2019-06-01T05:08:17.538Z,20.80
2019-06-01T05:10:45.771Z,18.98
2019-06-01T05:13:13.919Z,18.60
2019-06-01T05:15:42.234Z,18.15
2019-06-01T05:18:10.367Z,19.98
2019-06-01T05:20:38.511Z,18.75
2019-06-01T05:23:06.686Z,19.15
2019-06-01T05:25:34.943Z,20.32
2019-06-01T05:28:03.132Z,17.60
2019-06-01T05:30:31.431Z,18.15
2019-06-01T05:32:59.643Z,17.70
2019-06-01T05:35:27.808Z,17.02
2019-06-01T05:37:55.930Z,16.48
2019-06-01T05:40:24.152Z,16.02
2019-06-01T05:42:52.300Z,16.35
2019-06-01T05:45:22.545Z,15.13
2019-06-01T05:47:50.368Z,16.55
2019-06-01T05:50:18.802Z,15.72
2019-06-01T05:52:47.007Z,15.85
2019-06-01T05:55:16.663Z,13.55
2019-06-01T05:57:44.893Z,13.13
2019-06-01T06:00:13.599Z,12.93
2019-06-01T06:02:41.726Z,13.15
2019-06-01T06:05:10.627Z,11.63
2019-06-01T06:07:38.868Z,13.00
2019-06-01T06:10:07.636Z,11.63
2019-06-01T06:12:35.845Z,12.58
2019-06-01T06:15:04.948Z,11.00
2019-06-01T06:17:33.091Z,9.68
2019-06-01T06:20:04.032Z,10.58
2019-06-01T06:22:32.188Z,11.48
2019-06-01T06:25:00.384Z,9.65
2019-06-01T06:27:28.520Z,11.38
2019-06-01T06:29:56.704Z,10.48
2019-06-01T06:32:24.872Z,9.25
2019-06-01T06:34:53.152Z,8.50
2019-06-01T06:37:21.848Z,8.70
2019-06-01T06:39:50.242Z,11.60
2019-06-01T06:42:30.098Z,10.60
2019-06-01T06:44:49.475Z,9.25
2019-06-01T06:47:18.726Z,10.03
2019-06-01T06:49:47.111Z,9.38
2019-06-01T06:52:15.378Z,8.58
2019-06-01T06:54:43.670Z,8.15
2019-06-01T06:57:11.882Z,8.88
2019-06-01T06:59:40.066Z,8.95
2019-06-01T07:02:11.320Z,9.18
2019-06-01T07:04:41.894Z,10.80
2019-06-01T07:09:37.404Z,8.68
2019-06-01T07:12:05.697Z,8.33
2019-06-01T07:14:33.842Z,8.95
2019-06-01T07:17:03.855Z,7.67
2019-06-01T07:19:32.001Z,7.10
2019-06-01T07:22:00.445Z,9.00
2019-06-01T07:24:28.685Z,18.90
2019-06-01T07:26:56.882Z,11.15
2019-06-01T07:29:26.171Z,9.05
2019-06-01T07:31:54.487Z,6.92
2019-06-01T07:34:33.542Z,7.75
2019-06-01T07:36:52.596Z,7.00
2019-06-01T07:39:21.054Z,7.15
2019-06-01T07:41:49.273Z,6.60
2019-06-01T07:44:17.412Z,6.75
2019-06-01T07:46:46.099Z,8.20
2019-06-01T07:49:18.527Z,6.97
2019-06-01T07:51:46.848Z,7.10
2019-06-01T07:54:15.379Z,7.22
2019-06-01T07:56:43.709Z,7.65
2019-06-01T07:59:11.931Z,7.90
2019-06-01T08:01:42.198Z,7.72
2019-06-01T08:04:10.030Z,7.08
2019-06-01T08:06:47.419Z,8.80
2019-06-01T08:09:08.135Z,8.58
2019-06-01T08:11:36.276Z,7.08
2019-06-01T08:14:04.502Z,6.62
2019-06-01T08:16:32.742Z,7.53
2019-06-01T08:19:00.911Z,7.10
2019-06-01T08:21:30.183Z,7.92
2019-06-01T08:23:58.451Z,6.17
2019-06-01T08:26:26.687Z,6.30
2019-06-01T08:28:54.885Z,7.45
2019-06-01T08:31:24.463Z,5.83
2019-06-01T08:33:52.699Z,6.42
2019-06-01T08:36:21.042Z,5.65
2019-06-01T08:38:49.269Z,5.40
2019-06-01T08:41:17.531Z,6.80
2019-06-01T08:43:45.669Z,5.00
2019-06-01T08:46:13.853Z,5.37
2019-06-01T08:48:41.975Z,5.50
2019-06-01T08:51:10.208Z,8.58
2019-06-01T08:53:38.433Z,5.90
2019-06-01T08:56:06.564Z,5.47
2019-06-01T08:58:34.759Z,4.62
2019-06-01T09:01:02.882Z,5.67
2019-06-01T09:03:31.847Z,8.33
2019-06-01T09:06:00.109Z,5.10
2019-06-01T09:08:28.914Z,4.85
2019-06-01T09:10:57.189Z,6.30
2019-06-01T09:13:25.328Z,5.85
2019-06-01T09:15:53.490Z,4.65
2019-06-01T09:18:21.699Z,5.15
2019-06-01T09:20:51.425Z,5.10
2019-06-01T09:23:19.538Z,4.67
2019-06-01T09:25:47.700Z,5.60
2019-06-01T09:28:15.872Z,4.00
2019-06-01T09:30:44.028Z,4.60
2019-06-01T09:33:15.818Z,4.30
2019-06-01T09:35:53.976Z,4.60
2019-06-01T09:40:41.502Z,6.22
2019-06-01T09:43:09.706Z,4.47
2019-06-01T09:45:38.354Z,5.72
2019-06-01T09:48:06.667Z,5.42
2019-06-01T09:50:37.894Z,5.08
2019-06-01T09:53:07.551Z,4.75
2019-06-01T09:55:36.462Z,3.92
2019-06-01T09:58:04.663Z,4.55
2019-06-01T10:00:32.878Z,5.05
2019-06-01T10:03:01.008Z,5.35
2019-06-01T10:05:30.302Z,5.03
2019-06-01T10:07:58.482Z,9.37
2019-06-01T10:10:26.604Z,6.25
2019-06-01T10:12:54.725Z,6.00
2019-06-01T10:15:22.895Z,5.20
2019-06-01T10:17:51.086Z,5.47
2019-06-01T10:20:19.248Z,5.37
2019-06-01T10:22:47.550Z,6.65
2019-06-01T10:25:18.194Z,6.85
2019-06-01T10:27:46.406Z,5.62
2019-06-01T10:30:14.689Z,5.80
2019-06-01T10:32:45.617Z,5.35
2019-06-01T10:35:17.825Z,6.45
2019-06-01T10:37:46.099Z,4.17
2019-06-01T10:40:14.455Z,6.22
2019-06-01T10:42:42.605Z,5.25
2019-06-01T10:45:33.547Z,4.60
2019-06-01T10:48:03.687Z,5.12
2019-06-01T10:50:32.947Z,5.10
2019-06-01T10:53:01.715Z,5.17
2019-06-01T10:55:29.883Z,5.60
2019-06-01T10:57:58.041Z,5.03
2019-06-01T11:00:37.695Z,5.10
2019-06-01T11:02:56.222Z,4.95
2019-06-01T11:05:24.518Z,5.37
2019-06-01T11:07:52.636Z,5.60
2019-06-01T11:10:20.840Z,4.53
2019-06-01T11:12:49.060Z,8.33
2019-06-01T11:15:17.240Z,5.00
2019-06-01T11:17:45.377Z,4.72
2019-06-01T11:20:13.817Z,6.50
2019-06-01T11:22:44.293Z,5.28
2019-06-01T11:25:13.176Z,4.70
2019-06-01T11:27:41.871Z,5.28
2019-06-01T11:30:10.553Z,5.20
2019-06-01T11:32:40.987Z,5.60
2019-06-01T11:35:08.978Z,4.20
2019-06-01T11:37:38.369Z,5.83
2019-06-01T11:40:07.403Z,4.10
2019-06-01T11:42:36.738Z,4.55
2019-06-01T11:45:05.991Z,3.95
2019-06-01T11:47:34.762Z,7.42
2019-06-01T11:50:03.597Z,4.70
2019-06-01T11:52:31.755Z,4.92
2019-06-01T11:54:59.906Z,3.92
2019-06-01T11:57:28.145Z,6.15
2019-06-01T11:59:56.303Z,5.00
2019-06-01T12:02:24.423Z,5.87
2019-06-01T12:04:52.690Z,5.87
2019-06-01T12:07:20.834Z,6.22
2019-06-01T12:09:49.036Z,3.00
2019-06-01T12:12:17.225Z,6.12
2019-06-01T12:14:46.663Z,6.60
2019-06-01T12:17:14.910Z,4.30
2019-06-01T12:19:43.074Z,4.17
2019-06-01T12:22:11.193Z,4.47
2019-06-01T12:24:39.498Z,4.72
2019-06-01T12:27:07.625Z,4.87
2019-06-01T12:29:35.747Z,4.60
2019-06-01T12:32:04.547Z,5.65
2019-06-01T12:34:32.795Z,4.60
2019-06-01T12:37:00.942Z,7.60
2019-06-01T12:39:29.092Z,5.28
2019-06-01T12:41:57.260Z,5.08
2019-06-01T12:44:25.667Z,5.12
2019-06-01T12:46:53.914Z,3.83
2019-06-01T12:49:22.230Z,4.42
2019-06-01T12:51:50.491Z,5.40
2019-06-01T12:54:18.727Z,6.08
2019-06-01T12:56:49.325Z,5.10
2019-06-01T12:59:18.098Z,7.67
2019-06-01T13:01:47.240Z,5.25
2019-06-01T13:04:15.906Z,5.95
2019-06-01T13:06:44.720Z,4.92
2019-06-01T13:09:14.061Z,5.33
2019-06-01T13:11:43.205Z,6.78
2019-06-01T13:14:11.537Z,3.93
2019-06-01T13:16:42.532Z,5.28
2019-06-01T13:19:09.679Z,5.00
2019-06-01T13:21:38.077Z,5.30
2019-06-01T13:24:06.242Z,4.67
2019-06-01T13:26:34.615Z,4.60
2019-06-01T13:29:02.716Z,4.80
2019-06-01T13:31:30.895Z,4.80
2019-06-01T13:33:59.037Z,5.20
2019-06-01T13:36:27.182Z,4.60
2019-06-01T13:38:55.337Z,6.60
2019-06-01T13:41:23.540Z,4.80
2019-06-01T13:43:51.699Z,5.72
2019-06-01T13:46:19.986Z,5.30
2019-06-01T13:48:48.130Z,5.85
2019-06-01T13:51:16.209Z,5.72
2019-06-01T13:53:44.471Z,6.60
2019-06-01T13:56:13.424Z,4.08
2019-06-01T13:58:41.823Z,6.97
2019-06-01T14:01:09.953Z,5.50
2019-06-01T14:03:38.070Z,4.85
2019-06-01T14:06:06.241Z,4.58
2019-06-01T14:08:34.369Z,5.90
2019-06-01T14:11:03.394Z,5.17
2019-06-01T14:13:31.522Z,4.50
2019-06-01T14:15:59.729Z,6.35
2019-06-01T14:18:27.927Z,6.83
2019-06-01T14:20:56.129Z,5.55
2019-06-01T14:23:24.313Z,6.85
2019-06-01T14:25:54.110Z,4.85
2019-06-01T14:28:22.583Z,4.60
2019-06-01T14:30:50.753Z,5.97
2019-06-01T14:33:19.004Z,5.15
2019-06-01T14:35:48.285Z,6.25
2019-06-01T14:38:16.585Z,52.37
2019-06-01T14:40:44.808Z,24.98
2019-06-01T14:43:13.026Z,6.22
2019-06-01T14:45:41.131Z,5.33
2019-06-01T14:48:09.529Z,5.72
2019-06-01T14:50:37.789Z,6.33
2019-06-01T14:53:05.909Z,4.85
2019-06-01T14:55:34.161Z,5.78
2019-06-01T14:58:02.370Z,6.15
2019-06-01T15:00:30.565Z,6.47
2019-06-01T15:02:58.796Z,6.97
2019-06-01T15:05:27.067Z,5.97
2019-06-01T15:07:57.125Z,6.20
2019-06-01T15:10:25.391Z,5.53
2019-06-01T15:13:00.328Z,6.58
2019-06-01T15:15:23.580Z,7.97
2019-06-01T15:17:51.860Z,4.35
2019-06-01T15:20:20.132Z,4.97
2019-06-01T15:22:48.398Z,4.45
2019-06-01T15:25:16.647Z,6.03
2019-06-01T15:27:45.010Z,4.92
2019-06-01T15:30:13.851Z,4.12
2019-06-01T15:32:41.987Z,4.80
2019-06-01T15:35:10.920Z,4.47
2019-06-01T15:37:39.036Z,3.77
2019-06-01T15:40:07.924Z,3.85
2019-06-01T15:42:36.144Z,2.60
2019-06-01T15:45:04.905Z,4.90
2019-06-01T15:47:33.140Z,3.25
2019-06-01T15:50:02.634Z,4.10
2019-06-01T15:52:31.136Z,5.70
2019-06-01T15:55:00.463Z,4.70
2019-06-01T15:57:28.856Z,3.12
2019-06-01T15:59:57.201Z,3.95
2019-06-01T16:02:25.380Z,3.30
2019-06-01T16:04:54.868Z,3.25
2019-06-01T16:07:23.382Z,5.25
2019-06-01T16:09:51.528Z,3.15
2019-06-01T16:12:19.735Z,2.98
2019-06-01T16:14:48.088Z,2.80
2019-06-01T16:17:16.251Z,4.30
2019-06-01T16:19:44.430Z,5.72
2019-06-01T16:22:12.565Z,3.87
2019-06-01T16:24:40.766Z,2.75
2019-06-01T16:27:08.920Z,3.25
2019-06-01T16:29:37.999Z,1.75
2019-06-01T16:32:06.126Z,3.37
2019-06-01T16:34:34.390Z,5.28
2019-06-01T16:37:03.198Z,2.60
2019-06-01T16:39:31.709Z,2.98
2019-06-01T16:41:59.931Z,2.80
2019-06-01T16:44:28.096Z,4.40
2019-06-01T16:46:57.556Z,3.98
2019-06-01T16:49:27.380Z,4.37
2019-06-01T16:51:56.917Z,4.30
2019-06-01T16:54:25.694Z,3.70
2019-06-01T16:56:53.960Z,3.40
2019-06-01T16:59:22.108Z,3.05
2019-06-01T17:01:50.294Z,4.55
2019-06-01T17:04:18.618Z,3.67
2019-06-01T17:06:46.756Z,4.08
2019-06-01T17:09:15.224Z,4.08
2019-06-01T17:11:43.410Z,6.40
2019-06-01T17:14:11.539Z,5.15
2019-06-01T17:16:39.684Z,6.97
2019-06-01T17:19:07.847Z,7.12
2019-06-01T17:21:36.078Z,5.15
2019-06-01T17:24:05.961Z,5.78
2019-06-01T17:26:34.198Z,6.58
2019-06-01T17:29:04.130Z,8.23
2019-06-01T17:31:32.440Z,6.40
2019-06-01T17:34:00.652Z,5.55
2019-06-01T17:36:28.806Z,5.42
2019-06-01T17:38:56.977Z,5.83
2019-06-01T17:41:25.116Z,6.60
2019-06-01T17:43:53.247Z,6.15
2019-06-01T17:46:21.368Z,7.10
2019-06-01T17:48:49.542Z,6.60
2019-06-01T17:51:17.652Z,7.55
2019-06-01T17:53:45.782Z,15.50
2019-06-01T17:56:14.058Z,5.97
2019-06-01T17:58:42.180Z,9.63
2019-06-01T18:01:10.335Z,7.33
2019-06-01T18:03:38.496Z,9.00
2019-06-01T18:06:07.783Z,7.05
2019-06-01T18:08:35.983Z,8.10
2019-06-01T18:11:04.378Z,9.93
2019-06-01T18:13:32.529Z,7.08
2019-06-01T18:16:02.880Z,6.28
2019-06-01T18:18:30.662Z,5.62
2019-06-01T18:20:59.202Z,10.63
2019-06-01T18:23:27.386Z,8.60
2019-06-01T18:25:55.569Z,7.87
2019-06-01T18:28:26.322Z,7.40
2019-06-01T18:30:54.443Z,7.15
2019-06-01T18:33:22.601Z,6.33
2019-06-01T18:35:50.733Z,9.33
2019-06-01T18:38:18.871Z,7.03
2019-06-01T18:40:47.072Z,9.03
2019-06-01T18:43:17.548Z,6.12
2019-06-01T18:48:14.483Z,6.80
2019-06-01T18:50:43.239Z,6.67
2019-06-01T18:53:12.152Z,7.15
2019-06-01T18:55:40.677Z,6.22
2019-06-01T18:58:10.244Z,6.70
2019-06-01T19:00:40.103Z,6.67
2019-06-01T19:03:09.152Z,5.25
2019-06-01T19:05:37.819Z,6.03
2019-06-01T19:08:07.206Z,4.92
2019-06-01T19:10:35.634Z,10.83
2019-06-01T19:13:05.558Z,5.78
2019-06-01T19:15:34.222Z,5.72
2019-06-01T19:18:03.349Z,7.67
2019-06-01T19:20:33.247Z,6.28
2019-06-01T19:23:03.343Z,5.60
2019-06-01T19:25:31.974Z,5.35
2019-06-01T19:28:00.152Z,5.70
2019-06-01T19:30:46.585Z,7.25
2019-06-01T19:33:17.434Z,12.10
2019-06-01T19:35:44.558Z,6.00
2019-06-01T19:38:13.406Z,6.12
2019-06-01T19:40:41.734Z,5.83
2019-06-01T19:43:10.266Z,5.58
2019-06-01T19:45:41.322Z,4.67
2019-06-01T19:48:12.174Z,7.97
2019-06-01T19:50:40.730Z,8.83
2019-06-01T19:53:08.867Z,10.63
2019-06-01T19:55:36.983Z,7.22
2019-06-01T19:58:05.153Z,7.28
2019-06-01T20:00:33.497Z,7.12
2019-06-01T20:03:03.670Z,7.37
2019-06-01T20:05:31.908Z,6.78
2019-06-01T20:08:07.703Z,6.87
2019-06-01T20:10:35.893Z,5.67
2019-06-01T20:13:04.101Z,4.62
2019-06-01T20:15:32.523Z,7.33
2019-06-01T20:18:01.041Z,8.95
2019-06-01T20:20:29.180Z,5.78
2019-06-01T20:22:57.329Z,8.50
2019-06-01T20:25:25.489Z,6.87
2019-06-01T20:27:53.645Z,7.90
2019-06-01T20:30:22.232Z,9.68
2019-06-01T20:32:50.528Z,7.78
2019-06-01T20:35:18.647Z,8.43
2019-06-01T20:37:46.803Z,6.75
2019-06-01T20:40:16.253Z,7.75
2019-06-01T20:42:45.095Z,8.05
2019-06-01T20:45:14.448Z,7.03
2019-06-01T20:47:42.969Z,7.80
2019-06-01T20:50:12.629Z,9.80
2019-06-01T20:52:41.147Z,7.08
2019-06-01T20:55:09.456Z,8.53
2019-06-01T20:57:37.808Z,6.70
2019-06-01T21:00:08.073Z,7.47
2019-06-01T21:02:36.276Z,8.98
2019-06-01T21:05:06.048Z,6.37
2019-06-01T21:07:34.274Z,8.65
2019-06-01T21:10:02.572Z,12.10
2019-06-01T21:12:44.004Z,10.13
2019-06-01T21:15:00.616Z,8.70
2019-06-01T21:17:28.753Z,11.33
2019-06-01T21:19:56.886Z,10.60
2019-06-01T21:22:25.032Z,8.40
2019-06-01T21:24:53.133Z,8.18
2019-06-01T21:27:21.261Z,9.00
2019-06-01T21:29:49.577Z,7.72
2019-06-01T21:32:18.978Z,9.00
2019-06-01T21:34:47.469Z,10.00
2019-06-01T21:37:15.562Z,7.97
2019-06-01T21:39:43.667Z,6.97
2019-06-01T21:42:11.857Z,9.63
2019-06-01T21:44:39.971Z,7.05
2019-06-01T21:47:08.078Z,9.38
2019-06-01T21:49:36.198Z,7.30
2019-06-01T21:52:04.399Z,10.72
2019-06-01T21:54:32.515Z,7.85
2019-06-01T21:57:00.632Z,8.23
2019-06-01T21:59:28.752Z,10.40
2019-06-01T22:01:56.854Z,9.80
2019-06-01T22:04:25.627Z,12.47
2019-06-01T22:06:53.900Z,16.45
2019-06-01T22:09:23.259Z,12.40
2019-06-01T22:11:51.591Z,12.15
2019-06-01T22:14:19.703Z,10.38
2019-06-01T22:16:47.824Z,13.32
2019-06-01T22:19:15.932Z,8.20
2019-06-01T22:21:44.085Z,10.43
2019-06-01T22:24:12.176Z,12.05
2019-06-01T22:26:40.326Z,9.68
2019-06-01T22:29:08.423Z,9.90
2019-06-01T22:31:36.555Z,9.90
2019-06-01T22:34:04.806Z,9.70
2019-06-01T22:36:32.912Z,9.23
2019-06-01T22:39:01.049Z,12.98
2019-06-01T22:41:29.196Z,10.03
2019-06-01T22:43:57.433Z,9.65
2019-06-01T22:46:26.819Z,11.03
2019-06-01T22:48:55.184Z,10.07
2019-06-01T22:51:23.374Z,10.58
2019-06-01T22:53:51.551Z,9.93
2019-06-01T22:56:21.070Z,10.18
2019-06-01T22:58:49.562Z,10.63
2019-06-01T23:01:17.764Z,13.08
2019-06-01T23:03:45.896Z,11.22
2019-06-01T23:06:14.066Z,10.55
2019-06-01T23:08:42.205Z,10.23
2019-06-01T23:11:10.444Z,11.97
2019-06-01T23:13:52.356Z,9.33
2019-06-01T23:16:08.425Z,9.00
2019-06-01T23:18:36.525Z,9.25
2019-06-01T23:21:05.833Z,11.08
2019-06-01T23:23:33.966Z,10.70
2019-06-01T23:26:02.173Z,11.78
2019-06-01T23:28:30.459Z,9.70
2019-06-01T23:30:58.666Z,10.45
2019-06-01T23:33:26.994Z,11.08
2019-06-01T23:35:55.109Z,9.63
2019-06-01T23:38:24.440Z,11.20
2019-06-01T23:40:52.972Z,12.57
2019-06-01T23:43:22.555Z,10.58
2019-06-01T23:45:50.957Z,12.82
2019-06-01T23:48:19.061Z,15.55
2019-06-01T23:50:47.220Z,13.98
2019-06-01T23:53:15.334Z,12.95
2019-06-01T23:55:43.431Z,14.43
2019-06-01T23:58:12.226Z,12.20
